createdAt,value
2018-11-05T00:01:17.379Z,28.67
2018-11-05T00:03:46.755Z,26.67
2018-11-05T00:06:16.160Z,26.00
2018-11-05T00:08:45.484Z,28.43
2018-11-05T00:11:14.806Z,26.97
2018-11-05T00:13:44.166Z,29.30
2018-11-05T00:16:13.561Z,30.90
2018-11-05T00:18:42.962Z,26.73
2018-11-05T00:21:12.352Z,27.73
2018-11-05T00:23:42.331Z,30.13
2018-11-05T00:26:12.043Z,25.50
2018-11-05T00:28:41.371Z,29.90
2018-11-05T00:31:10.741Z,32.80
2018-11-05T00:33:40.158Z,28.90
2018-11-05T00:36:09.523Z,26.50
2018-11-05T00:38:39.187Z,28.13
2018-11-05T00:41:08.736Z,31.73
2018-11-05T00:43:38.164Z,28.70
2018-11-05T00:46:08.018Z,30.43
2018-11-05T00:48:37.505Z,29.13
2018-11-05T00:51:06.929Z,37.13
2018-11-05T00:53:36.219Z,31.50
2018-11-05T00:56:05.615Z,30.50
2018-11-05T00:58:35.032Z,30.73
2018-11-05T01:01:04.756Z,31.10
2018-11-05T01:03:34.111Z,25.07
2018-11-05T01:06:03.684Z,27.40
2018-11-05T01:08:33.098Z,28.60
2018-11-05T01:11:02.484Z,28.43
2018-11-05T01:13:31.823Z,32.10
2018-11-05T01:16:01.160Z,31.73
2018-11-05T01:18:30.540Z,30.40
2018-11-05T01:21:00.381Z,31.20
2018-11-05T01:23:29.811Z,32.30
2018-11-05T01:25:59.172Z,30.90
2018-11-05T01:28:28.490Z,26.10
2018-11-05T01:30:57.790Z,30.60
2018-11-05T01:33:27.161Z,33.43
2018-11-05T01:35:56.584Z,33.00
2018-11-05T01:38:26.088Z,34.80
2018-11-05T01:40:55.586Z,30.93
2018-11-05T01:43:24.972Z,34.17
2018-11-05T01:45:54.452Z,32.50
2018-11-05T01:48:23.864Z,29.70
2018-11-05T01:50:53.184Z,29.87
2018-11-05T01:53:22.553Z,35.50
2018-11-05T01:55:51.901Z,29.53
2018-11-05T01:58:21.236Z,27.30
2018-11-05T02:00:50.684Z,27.90
2018-11-05T02:03:20.104Z,31.20
2018-11-05T02:05:49.531Z,27.70
2018-11-05T02:08:18.829Z,32.03
2018-11-05T02:10:48.141Z,29.80
2018-11-05T02:13:17.540Z,27.50
2018-11-05T02:15:46.923Z,31.50
2018-11-05T02:18:16.342Z,32.63
2018-11-05T02:20:45.666Z,25.80
2018-11-05T02:23:15.088Z,27.80
2018-11-05T02:25:44.432Z,29.70
2018-11-05T02:28:13.769Z,30.97
2018-11-05T02:30:43.075Z,31.37
2018-11-05T02:33:12.459Z,29.57
2018-11-05T02:35:41.976Z,28.17
2018-11-05T02:38:11.318Z,28.20
2018-11-05T02:40:40.780Z,28.50
2018-11-05T02:43:10.218Z,28.30
2018-11-05T02:45:39.869Z,31.63
2018-11-05T02:48:09.373Z,28.10
2018-11-05T02:50:38.893Z,27.00
2018-11-05T02:53:08.261Z,27.33
2018-11-05T02:55:37.621Z,32.60
2018-11-05T02:58:06.920Z,26.70
2018-11-05T03:00:36.278Z,32.27
2018-11-05T03:03:05.696Z,29.00
2018-11-05T03:05:35.088Z,32.77
2018-11-05T03:08:04.377Z,25.43
2018-11-05T03:10:33.760Z,27.03
2018-11-05T03:13:03.095Z,28.80
2018-11-05T03:15:32.416Z,30.63
2018-11-05T03:18:01.726Z,32.83
2018-11-05T03:20:31.090Z,28.10
2018-11-05T03:23:00.446Z,34.27
2018-11-05T03:25:29.759Z,27.63
2018-11-05T03:27:59.046Z,29.70
2018-11-05T03:30:28.374Z,28.17
2018-11-05T03:32:57.683Z,35.13
2018-11-05T03:35:27.149Z,33.83
2018-11-05T03:37:56.558Z,37.50
2018-11-05T03:40:25.999Z,35.60
2018-11-05T03:42:55.387Z,36.33
2018-11-05T03:45:24.871Z,33.57
2018-11-05T03:47:54.221Z,31.07
2018-11-05T03:50:23.571Z,30.73
2018-11-05T03:52:52.906Z,31.10
2018-11-05T03:55:22.276Z,33.70
2018-11-05T03:57:51.656Z,29.77
2018-11-05T04:00:20.946Z,33.90
2018-11-05T04:02:50.234Z,38.60
2018-11-05T04:05:19.783Z,35.10
2018-11-05T04:07:49.091Z,32.83
2018-11-05T04:10:18.408Z,34.90
2018-11-05T04:12:47.738Z,32.90
2018-11-05T04:15:17.084Z,36.40
2018-11-05T04:17:46.450Z,38.43
2018-11-05T04:20:15.878Z,34.97
2018-11-05T04:22:45.535Z,33.00
2018-11-05T04:25:14.871Z,29.90
2018-11-05T04:27:44.207Z,27.57
2018-11-05T04:30:15.386Z,34.03
2018-11-05T04:32:44.852Z,30.40
2018-11-05T04:35:14.414Z,30.80
2018-11-05T04:37:43.929Z,35.80
2018-11-05T04:40:13.264Z,30.43
2018-11-05T04:42:42.672Z,29.70
2018-11-05T04:45:13.384Z,30.07
2018-11-05T04:47:43.683Z,33.97
2018-11-05T04:50:19.563Z,35.40
2018-11-05T04:52:49.243Z,33.33
2018-11-05T04:55:18.588Z,35.40
2018-11-05T04:57:47.936Z,27.73
2018-11-05T05:00:18.547Z,37.73
2018-11-05T05:02:48.556Z,35.20
2018-11-05T05:05:17.955Z,35.33
2018-11-05T05:07:47.468Z,34.03
2018-11-05T05:10:16.776Z,30.90
2018-11-05T05:12:46.271Z,29.90
2018-11-05T05:15:15.773Z,34.67
2018-11-05T05:17:45.098Z,33.57
2018-11-05T05:20:15.709Z,27.20
2018-11-05T05:22:45.618Z,33.10
2018-11-05T05:25:15.047Z,40.83
2018-11-05T05:27:44.389Z,29.80
2018-11-05T05:30:16.803Z,33.70
2018-11-05T05:32:47.208Z,27.50
2018-11-05T05:35:17.349Z,29.30
2018-11-05T05:37:46.648Z,33.97
2018-11-05T05:40:16.241Z,31.20
2018-11-05T05:42:45.624Z,32.63
2018-11-05T05:45:14.967Z,30.80
2018-11-05T05:47:44.378Z,31.17
2018-11-05T05:50:15.684Z,28.63
2018-11-05T05:52:46.372Z,32.03
2018-11-05T05:55:15.892Z,28.57
2018-11-05T05:57:45.768Z,30.80
2018-11-05T06:00:16.313Z,31.57
2018-11-05T06:02:45.712Z,35.07
2018-11-05T06:05:15.713Z,32.10
2018-11-05T06:07:45.133Z,33.97
2018-11-05T06:10:15.388Z,35.00
2018-11-05T06:12:45.182Z,30.63
2018-11-05T06:15:15.733Z,29.67
2018-11-05T06:17:45.162Z,33.50
2018-11-05T06:20:16.665Z,31.90
2018-11-05T06:22:47.107Z,32.60
2018-11-05T06:25:18.221Z,31.53
2018-11-05T06:27:47.715Z,28.73
2018-11-05T06:30:18.680Z,43.70
2018-11-05T06:32:49.092Z,27.90
2018-11-05T06:35:19.038Z,53.27
2018-11-05T06:37:48.496Z,34.53
2018-11-05T06:40:19.447Z,35.80
2018-11-05T06:42:49.260Z,32.20
2018-11-05T06:45:20.133Z,34.63
2018-11-05T06:47:50.219Z,29.27
2018-11-05T06:50:21.314Z,29.17
2018-11-05T06:52:50.685Z,33.30
2018-11-05T06:55:20.026Z,31.00
2018-11-05T06:57:49.694Z,31.80
2018-11-05T07:00:21.317Z,31.37
2018-11-05T07:02:50.951Z,29.37
2018-11-05T07:05:20.628Z,35.73
2018-11-05T07:07:50.052Z,32.93
2018-11-05T07:10:19.869Z,40.27
2018-11-05T07:12:49.247Z,34.73
2018-11-05T07:15:19.562Z,32.30
2018-11-05T07:17:49.786Z,61.10
2018-11-05T07:20:20.460Z,32.70
2018-11-05T07:22:51.860Z,35.90
2018-11-05T07:25:21.239Z,33.87
2018-11-05T07:27:51.669Z,31.23
2018-11-05T07:30:22.227Z,32.70
2018-11-05T07:32:53.063Z,35.40
2018-11-05T07:35:22.653Z,29.93
2018-11-05T07:37:52.043Z,27.80
2018-11-05T07:40:21.687Z,32.53
2018-11-05T07:42:51.104Z,33.53
2018-11-05T07:45:21.952Z,32.03
2018-11-05T07:47:51.848Z,33.53
2018-11-05T07:50:22.289Z,31.67
2018-11-05T07:52:52.431Z,32.57
2018-11-05T07:55:21.792Z,31.33
2018-11-05T07:57:51.829Z,26.53
2018-11-05T08:00:26.557Z,31.57
2018-11-05T08:02:57.056Z,29.70
2018-11-05T08:05:26.582Z,33.83
2018-11-05T08:07:56.207Z,30.13
2018-11-05T08:10:25.604Z,29.03
2018-11-05T08:12:55.043Z,33.57
2018-11-05T08:15:25.656Z,26.20
2018-11-05T08:17:55.334Z,27.17
2018-11-05T08:20:24.661Z,32.37
2018-11-05T08:22:54.989Z,80.23
2018-11-05T08:25:24.710Z,28.23
2018-11-05T08:27:54.071Z,34.07
2018-11-05T08:30:24.680Z,32.47
2018-11-05T08:32:54.401Z,31.53
2018-11-05T08:35:24.274Z,37.60
2018-11-05T08:37:54.022Z,33.53
2018-11-05T08:40:25.517Z,32.17
2018-11-05T08:42:55.723Z,33.33
2018-11-05T08:45:26.413Z,29.83
2018-11-05T08:47:56.176Z,35.20
2018-11-05T08:50:25.894Z,27.10
2018-11-05T08:52:55.394Z,34.10
2018-11-05T08:55:25.981Z,33.50
2018-11-05T08:57:55.536Z,28.60
2018-11-05T09:00:30.011Z,27.10
2018-11-05T09:02:59.552Z,50.73
2018-11-05T09:05:28.941Z,29.00
2018-11-05T09:07:58.419Z,30.23
2018-11-05T09:10:27.981Z,28.37
2018-11-05T09:12:57.365Z,32.80
2018-11-05T09:15:27.198Z,36.87
2018-11-05T09:17:56.729Z,29.23
2018-11-05T09:20:26.208Z,42.20
2018-11-05T09:22:55.759Z,30.47
2018-11-05T09:25:25.237Z,24.43
2018-11-05T09:27:54.605Z,33.30
2018-11-05T09:30:24.786Z,34.60
2018-11-05T09:32:54.263Z,29.43
2018-11-05T09:35:24.500Z,32.23
2018-11-05T09:37:53.955Z,35.63
2018-11-05T09:40:24.684Z,66.03
2018-11-05T09:42:54.375Z,61.97
2018-11-05T09:45:26.372Z,51.07
2018-11-05T09:47:55.985Z,42.60
2018-11-05T09:50:25.467Z,28.13
2018-11-05T09:52:54.859Z,23.77
2018-11-05T09:55:26.028Z,27.80
2018-11-05T09:57:55.652Z,25.93
2018-11-05T10:00:25.735Z,34.40
2018-11-05T10:03:01.854Z,30.97
2018-11-05T10:05:41.726Z,34.50
2018-11-05T10:08:11.387Z,46.70
2018-11-05T10:10:40.787Z,33.17
2018-11-05T10:13:10.297Z,31.20
2018-11-05T10:15:39.882Z,25.53
2018-11-05T10:18:09.288Z,31.40
2018-11-05T10:20:38.723Z,28.53
2018-11-05T10:23:08.227Z,27.90
2018-11-05T10:25:37.551Z,52.47
2018-11-05T10:28:08.305Z,30.97
2018-11-05T10:30:44.345Z,30.87
2018-11-05T10:33:14.030Z,35.10
2018-11-05T10:35:48.861Z,28.93
2018-11-05T10:38:18.436Z,31.10
2018-11-05T10:40:47.892Z,29.67
2018-11-05T10:43:17.428Z,29.47
2018-11-05T10:45:46.953Z,32.17
2018-11-05T10:48:16.525Z,26.23
2018-11-05T10:50:45.958Z,46.20
2018-11-05T10:53:15.460Z,31.17
2018-11-05T10:55:44.902Z,28.20
2018-11-05T10:58:14.282Z,34.37
2018-11-05T11:00:48.943Z,33.23
2018-11-05T11:03:20.161Z,33.83
2018-11-05T11:05:49.596Z,41.43
2018-11-05T11:08:19.021Z,33.50
2018-11-05T11:10:48.445Z,26.70
2018-11-05T11:13:17.878Z,28.70
2018-11-05T11:15:47.354Z,30.90
2018-11-05T11:18:16.725Z,33.73
2018-11-05T11:20:46.354Z,34.40
2018-11-05T11:23:16.765Z,30.60
2018-11-05T11:25:46.175Z,22.10
2018-11-05T11:28:16.140Z,29.00
2018-11-05T11:30:45.510Z,34.60
2018-11-05T11:33:14.908Z,29.87
2018-11-05T11:35:44.234Z,29.63
2018-11-05T11:38:13.684Z,27.27
2018-11-05T11:40:43.327Z,27.13
2018-11-05T11:43:12.847Z,33.30
2018-11-05T11:45:42.321Z,31.77
2018-11-05T11:48:11.717Z,33.80
2018-11-05T11:50:41.123Z,30.70
2018-11-05T11:53:10.715Z,29.70
2018-11-05T11:55:39.960Z,27.97
2018-11-05T11:58:10.234Z,32.30
2018-11-05T12:00:40.293Z,33.27
2018-11-05T12:03:11.110Z,31.67
2018-11-05T12:05:40.580Z,31.93
2018-11-05T12:08:10.062Z,30.47
2018-11-05T12:10:39.472Z,30.90
2018-11-05T12:13:10.014Z,31.93
2018-11-05T12:15:40.058Z,32.10
2018-11-05T12:18:09.695Z,28.10
2018-11-05T12:20:39.665Z,27.90
2018-11-05T12:23:09.397Z,34.63
2018-11-05T12:25:38.820Z,29.80
2018-11-05T12:28:10.148Z,30.60
2018-11-05T12:30:39.589Z,32.03
2018-11-05T12:33:09.700Z,25.33
2018-11-05T12:35:42.646Z,29.67
2018-11-05T12:38:13.095Z,27.80
2018-11-05T12:40:43.285Z,23.90
2018-11-05T12:43:13.704Z,30.93
2018-11-05T12:45:43.767Z,35.63
2018-11-05T12:48:14.502Z,25.67
2018-11-05T12:50:45.701Z,30.57
2018-11-05T12:53:16.396Z,28.13
2018-11-05T12:55:46.657Z,24.63
2018-11-05T12:58:16.204Z,38.90
2018-11-05T13:00:45.703Z,30.43
2018-11-05T13:03:15.304Z,27.53
2018-11-05T13:05:45.277Z,27.37
2018-11-05T13:08:15.833Z,32.77
2018-11-05T13:10:45.703Z,31.77
2018-11-05T13:13:16.987Z,30.27
2018-11-05T13:15:47.101Z,31.30
2018-11-05T13:18:16.554Z,60.47
2018-11-05T13:20:46.137Z,32.80
2018-11-05T13:23:19.773Z,26.80
2018-11-05T13:25:49.460Z,32.60
2018-11-05T13:28:20.534Z,30.80
2018-11-05T13:30:49.992Z,29.80
2018-11-05T13:33:19.508Z,34.93
2018-11-05T13:35:49.039Z,39.17
2018-11-05T13:38:19.016Z,27.73
2018-11-05T13:40:47.926Z,28.90
2018-11-05T13:43:18.340Z,35.80
2018-11-05T13:45:50.057Z,29.27
2018-11-05T13:48:19.582Z,33.20
2018-11-05T13:50:49.516Z,26.60
2018-11-05T13:53:18.931Z,25.80
2018-11-05T13:55:48.320Z,34.90
2018-11-05T13:58:17.940Z,41.50
2018-11-05T14:00:47.185Z,31.03
2018-11-05T14:03:17.248Z,27.47
2018-11-05T14:05:46.646Z,25.37
2018-11-05T14:08:16.023Z,36.80
2018-11-05T14:10:45.624Z,34.00
2018-11-05T14:13:15.046Z,37.53
2018-11-05T14:15:44.412Z,38.03
2018-11-05T14:18:13.938Z,35.00
2018-11-05T14:20:43.319Z,28.47
2018-11-05T14:23:12.760Z,27.33
2018-11-05T14:25:42.274Z,30.93
2018-11-05T14:28:11.928Z,33.50
2018-11-05T14:30:41.285Z,28.53
2018-11-05T14:33:10.654Z,34.07
2018-11-05T14:35:40.876Z,37.43
2018-11-05T14:38:10.444Z,38.20
2018-11-05T14:40:39.843Z,35.03
2018-11-05T14:43:09.436Z,40.33
2018-11-05T14:45:38.987Z,40.43
2018-11-05T14:48:08.397Z,34.20
2018-11-05T14:50:37.913Z,34.20
2018-11-05T14:53:07.169Z,30.73
2018-11-05T14:55:36.891Z,43.07
2018-11-05T14:58:06.480Z,33.83
2018-11-05T15:00:36.480Z,33.00
2018-11-05T15:03:06.022Z,34.37
2018-11-05T15:05:35.466Z,39.47
2018-11-05T15:08:05.549Z,36.73
2018-11-05T15:10:34.977Z,39.23
2018-11-05T15:13:04.767Z,36.57
2018-11-05T15:15:34.309Z,34.03
2018-11-05T15:18:03.708Z,35.03
2018-11-05T15:20:33.155Z,35.47
2018-11-05T15:23:02.605Z,35.20
2018-11-05T15:25:32.043Z,40.40
2018-11-05T15:28:01.421Z,37.73
2018-11-05T15:30:30.931Z,30.63
2018-11-05T15:33:00.370Z,32.63
2018-11-05T15:35:30.520Z,38.07
2018-11-05T15:37:59.929Z,39.47
2018-11-05T15:40:29.456Z,30.87
2018-11-05T15:42:58.989Z,34.77
2018-11-05T15:45:28.555Z,36.00
2018-11-05T15:47:58.706Z,40.60
2018-11-05T15:50:28.058Z,41.43
2018-11-05T15:52:57.675Z,41.10
2018-11-05T15:55:26.852Z,55.33
2018-11-05T15:57:56.727Z,47.80
2018-11-05T16:00:26.322Z,40.83
2018-11-05T16:02:59.051Z,57.23
2018-11-05T16:05:28.428Z,63.70
2018-11-05T16:07:57.898Z,53.00
2018-11-05T16:10:27.420Z,69.73
2018-11-05T16:12:56.849Z,68.07
2018-11-05T16:15:26.279Z,64.03
2018-11-05T16:17:55.682Z,65.10
2018-11-05T16:20:25.104Z,49.10
2018-11-05T16:22:54.594Z,44.77
2018-11-05T16:25:23.997Z,42.70
2018-11-05T16:27:53.299Z,76.00
2018-11-05T16:30:23.077Z,56.27
2018-11-05T16:32:52.790Z,64.00
2018-11-05T16:35:22.393Z,64.83
2018-11-05T16:37:51.848Z,50.17
2018-11-05T16:40:21.387Z,43.70
2018-11-05T16:42:52.761Z,40.00
2018-11-05T16:45:22.232Z,56.80
2018-11-05T16:47:51.849Z,48.67
2018-11-05T16:50:23.748Z,48.77
2018-11-05T16:52:53.347Z,51.83
2018-11-05T16:55:22.935Z,48.50
2018-11-05T16:57:52.336Z,49.07
2018-11-05T17:00:21.835Z,52.23
2018-11-05T17:02:51.331Z,46.40
2018-11-05T17:05:20.692Z,47.70
2018-11-05T17:07:50.121Z,69.93
2018-11-05T17:10:19.565Z,50.03
2018-11-05T17:12:49.054Z,52.23
2018-11-05T17:15:18.389Z,58.43
2018-11-05T17:17:47.850Z,58.10
2018-11-05T17:20:18.816Z,54.83
2018-11-05T17:22:48.433Z,57.60
2018-11-05T17:25:17.909Z,59.40
2018-11-05T17:27:49.377Z,58.53
2018-11-05T17:30:20.181Z,64.23
2018-11-05T17:32:49.830Z,68.60
2018-11-05T17:35:20.126Z,56.30
2018-11-05T17:37:49.838Z,61.17
2018-11-05T17:40:20.889Z,51.97
2018-11-05T17:42:50.413Z,57.93
2018-11-05T17:45:20.504Z,46.83
2018-11-05T17:47:50.246Z,49.63
2018-11-05T17:50:20.861Z,50.93
2018-11-05T17:52:50.372Z,53.33
2018-11-05T17:55:19.802Z,51.53
2018-11-05T17:57:49.641Z,52.43
2018-11-05T18:00:20.425Z,57.80
2018-11-05T18:02:50.019Z,51.00
2018-11-05T18:05:19.818Z,56.20
2018-11-05T18:07:49.318Z,61.47
2018-11-05T18:10:18.665Z,57.77
2018-11-05T18:12:48.002Z,53.93
2018-11-05T18:15:17.505Z,63.00
2018-11-05T18:17:47.143Z,64.43
2018-11-05T18:20:17.211Z,53.67
2018-11-05T18:22:46.562Z,62.63
2018-11-05T18:25:17.274Z,74.17
2018-11-05T18:27:46.766Z,53.00
2018-11-05T18:30:17.137Z,52.13
2018-11-05T18:32:46.495Z,62.63
2018-11-05T18:35:16.366Z,56.20
2018-11-05T18:37:47.614Z,51.57
2018-11-05T18:40:17.171Z,55.27
2018-11-05T18:42:46.680Z,53.60
2018-11-05T18:45:16.400Z,69.23
2018-11-05T18:47:45.805Z,47.47
2018-11-05T18:50:16.143Z,59.20
2018-11-05T18:52:45.823Z,47.17
2018-11-05T18:55:16.787Z,60.60
2018-11-05T18:57:46.417Z,55.73
2018-11-05T19:00:17.941Z,63.10
2018-11-05T19:02:47.863Z,66.77
2018-11-05T19:05:17.784Z,54.60
2018-11-05T19:07:47.392Z,64.27
2018-11-05T19:10:16.724Z,57.33
2018-11-05T19:12:46.285Z,62.50
2018-11-05T19:15:16.401Z,54.70
2018-11-05T19:17:46.612Z,67.03
2018-11-05T19:20:16.272Z,65.37
2018-11-05T19:22:46.228Z,55.57
2018-11-05T19:25:16.371Z,61.17
2018-11-05T19:27:45.828Z,66.93
2018-11-05T19:30:18.689Z,57.80
2018-11-05T19:32:48.277Z,57.70
2018-11-05T19:35:17.769Z,63.70
2018-11-05T19:37:47.097Z,69.63
2018-11-05T19:40:17.452Z,70.40
2018-11-05T19:42:47.430Z,69.47
2018-11-05T19:45:18.128Z,62.70
2018-11-05T19:47:50.167Z,67.50
2018-11-05T19:50:20.965Z,73.13
2018-11-05T19:52:51.318Z,66.67
2018-11-05T19:55:21.097Z,66.67
2018-11-05T19:57:51.315Z,68.53
2018-11-05T20:00:22.318Z,74.10
2018-11-05T20:02:52.027Z,68.80
2018-11-05T20:05:21.599Z,77.23
2018-11-05T20:07:51.814Z,62.17
2018-11-05T20:10:21.162Z,72.33
2018-11-05T20:12:50.665Z,61.00
2018-11-05T20:15:20.290Z,60.70
2018-11-05T20:17:51.033Z,68.20
2018-11-05T20:20:21.703Z,56.23
2018-11-05T20:22:51.210Z,76.33
2018-11-05T20:25:20.489Z,67.10
2018-11-05T20:27:49.811Z,72.63
2018-11-05T20:30:21.411Z,75.37
2018-11-05T20:32:52.125Z,70.63
2018-11-05T20:35:21.438Z,70.60
2018-11-05T20:37:51.183Z,71.60
2018-11-05T20:40:21.570Z,60.33
2018-11-05T20:42:51.799Z,73.00
2018-11-05T20:45:22.137Z,73.00
2018-11-05T20:47:51.459Z,69.77
2018-11-05T20:50:20.847Z,73.30
2018-11-05T20:52:50.267Z,72.23
2018-11-05T20:55:19.697Z,76.10
2018-11-05T20:57:49.026Z,62.43
2018-11-05T21:00:19.796Z,72.43
2018-11-05T21:02:49.138Z,75.53
2018-11-05T21:05:18.530Z,72.73
2018-11-05T21:07:47.908Z,75.30
2018-11-05T21:10:17.428Z,70.20
2018-11-05T21:12:46.755Z,73.17
2018-11-05T21:15:19.496Z,70.73
2018-11-05T21:17:50.029Z,86.47
2018-11-05T21:20:19.512Z,76.83
2018-11-05T21:22:49.627Z,76.23
2018-11-05T21:25:18.933Z,91.57
2018-11-05T21:27:48.284Z,81.33
2018-11-05T21:30:20.791Z,75.93
2018-11-05T21:32:50.452Z,67.37
2018-11-05T21:35:20.957Z,80.03
2018-11-05T21:37:50.280Z,90.07
2018-11-05T21:40:20.088Z,79.03
2018-11-05T21:42:49.460Z,103.87
2018-11-05T21:45:18.864Z,78.20
2018-11-05T21:47:48.306Z,70.60
2018-11-05T21:50:18.712Z,85.63
2018-11-05T21:52:48.493Z,93.83
2018-11-05T21:55:17.968Z,87.63
2018-11-05T21:57:48.438Z,86.93
2018-11-05T22:00:20.484Z,87.10
2018-11-05T22:02:55.445Z,81.23
2018-11-05T22:05:24.742Z,78.40
2018-11-05T22:07:54.213Z,70.33
2018-11-05T22:10:23.618Z,74.70
2018-11-05T22:12:52.954Z,70.03
2018-11-05T22:15:22.276Z,71.73
2018-11-05T22:17:51.663Z,77.07
2018-11-05T22:20:20.975Z,65.00
2018-11-05T22:22:50.296Z,67.60
2018-11-05T22:25:19.612Z,70.47
2018-11-05T22:27:48.951Z,87.60
2018-11-05T22:30:18.238Z,86.00
2018-11-05T22:32:47.732Z,96.47
2018-11-05T22:35:17.233Z,112.23
2018-11-05T22:37:46.631Z,91.10
2018-11-05T22:40:15.974Z,81.80
2018-11-05T22:42:45.282Z,88.93
2018-11-05T22:45:15.483Z,175.07
2018-11-05T22:47:45.398Z,292.93
2018-11-05T22:50:14.904Z,146.53
2018-11-05T22:52:44.250Z,139.27
2018-11-05T22:55:13.595Z,145.13
2018-11-05T22:57:43.095Z,165.33
2018-11-05T23:00:22.346Z,331.23
2018-11-05T23:02:57.174Z,157.67
2018-11-05T23:05:26.576Z,189.20
2018-11-05T23:07:56.678Z,169.13
2018-11-05T23:10:26.094Z,167.13
2018-11-05T23:12:55.534Z,203.80
2018-11-05T23:15:24.869Z,195.23
2018-11-05T23:17:54.222Z,155.07
2018-11-05T23:20:24.696Z,210.37
2018-11-05T23:22:54.014Z,151.77
2018-11-05T23:25:23.379Z,240.93
2018-11-05T23:27:52.791Z,330.60
2018-11-05T23:30:22.152Z,245.30
2018-11-05T23:32:51.496Z,244.27
2018-11-05T23:35:20.886Z,193.47
2018-11-05T23:37:50.331Z,234.93
2018-11-05T23:40:19.791Z,240.33
2018-11-05T23:42:49.297Z,200.33
2018-11-05T23:45:18.655Z,110.93
2018-11-05T23:47:48.124Z,105.90
2018-11-05T23:50:17.568Z,160.17
2018-11-05T23:52:46.895Z,76.97
2018-11-05T23:55:16.277Z,126.67
2018-11-05T23:57:45.627Z,220.20
